sensor_id;sensor_type;location;lat;lon;timestamp;P1;durP1;ratioP1;P2;durP2;ratioP2
71503;SDS011;59323;50.874;7.028;2023-08-06T00:02:11;5.57;;;2.17;;
71503;SDS011;59323;50.874;7.028;2023-08-06T00:04:36;9.53;;;2.23;;
71503;SDS011;59323;50.874;7.028;2023-08-06T00:07:01;6.37;;;2.20;;
71503;SDS011;59323;50.874;7.028;2023-08-06T00:09:27;5.32;;;2.28;;
71503;SDS011;59323;50.874;7.028;2023-08-06T00:11:52;7.57;;;2.60;;
71503;SDS011;59323;50.874;7.028;2023-08-06T00:14:17;6.07;;;2.83;;
71503;SDS011;59323;50.874;7.028;2023-08-06T00:16:43;6.77;;;2.43;;
71503;SDS011;59323;50.874;7.028;2023-08-06T00:19:09;6.18;;;2.60;;
71503;SDS011;59323;50.874;7.028;2023-08-06T00:21:35;6.00;;;2.85;;
71503;SDS011;59323;50.874;7.028;2023-08-06T00:24:01;6.10;;;2.30;;
71503;SDS011;59323;50.874;7.028;2023-08-06T00:26:26;8.27;;;2.60;;
71503;SDS011;59323;50.874;7.028;2023-08-06T00:28:51;7.13;;;2.67;;
71503;SDS011;59323;50.874;7.028;2023-08-06T00:31:17;10.53;;;2.70;;
71503;SDS011;59323;50.874;7.028;2023-08-06T00:33:42;7.03;;;2.30;;
71503;SDS011;59323;50.874;7.028;2023-08-06T00:36:07;5.88;;;2.55;;
71503;SDS011;59323;50.874;7.028;2023-08-06T00:38:33;7.13;;;2.37;;
71503;SDS011;59323;50.874;7.028;2023-08-06T00:40:58;6.73;;;2.77;;
71503;SDS011;59323;50.874;7.028;2023-08-06T00:43:23;6.50;;;2.50;;
71503;SDS011;59323;50.874;7.028;2023-08-06T00:45:49;5.40;;;2.33;;
71503;SDS011;59323;50.874;7.028;2023-08-06T00:48:14;6.73;;;2.83;;
71503;SDS011;59323;50.874;7.028;2023-08-06T00:50:40;5.97;;;2.30;;
71503;SDS011;59323;50.874;7.028;2023-08-06T00:53:05;9.50;;;2.43;;
71503;SDS011;59323;50.874;7.028;2023-08-06T00:55:31;7.07;;;2.50;;
71503;SDS011;59323;50.874;7.028;2023-08-06T00:57:57;6.70;;;2.35;;
71503;SDS011;59323;50.874;7.028;2023-08-06T01:00:23;9.03;;;2.80;;
71503;SDS011;59323;50.874;7.028;2023-08-06T01:02:50;6.47;;;3.03;;
71503;SDS011;59323;50.874;7.028;2023-08-06T01:05:16;7.40;;;2.23;;
71503;SDS011;59323;50.874;7.028;2023-08-06T01:16:27;7.25;;;2.78;;
71503;SDS011;59323;50.874;7.028;2023-08-06T01:18:55;7.15;;;2.53;;
71503;SDS011;59323;50.874;7.028;2023-08-06T01:21:23;5.68;;;2.58;;
71503;SDS011;59323;50.874;7.028;2023-08-06T01:23:48;6.60;;;2.80;;
71503;SDS011;59323;50.874;7.028;2023-08-06T01:26:24;5.13;;;2.40;;
71503;SDS011;59323;50.874;7.028;2023-08-06T01:29:11;8.27;;;3.13;;
71503;SDS011;59323;50.874;7.028;2023-08-06T01:31:43;11.10;;;3.50;;
71503;SDS011;59323;50.874;7.028;2023-08-06T01:34:11;8.40;;;3.17;;
71503;SDS011;59323;50.874;7.028;2023-08-06T01:36:48;6.05;;;2.63;;
71503;SDS011;59323;50.874;7.028;2023-08-06T01:39:15;6.30;;;2.92;;
71503;SDS011;59323;50.874;7.028;2023-08-06T01:41:40;6.53;;;2.90;;
71503;SDS011;59323;50.874;7.028;2023-08-06T01:44:11;6.57;;;2.67;;
71503;SDS011;59323;50.874;7.028;2023-08-06T01:46:36;6.65;;;2.80;;
71503;SDS011;59323;50.874;7.028;2023-08-06T01:49:01;9.83;;;3.00;;
71503;SDS011;59323;50.874;7.028;2023-08-06T01:51:27;8.48;;;2.80;;
71503;SDS011;59323;50.874;7.028;2023-08-06T01:53:52;7.47;;;2.97;;
71503;SDS011;59323;50.874;7.028;2023-08-06T01:56:17;6.20;;;3.03;;
71503;SDS011;59323;50.874;7.028;2023-08-06T01:58:43;7.63;;;3.30;;
71503;SDS011;59323;50.874;7.028;2023-08-06T02:01:12;5.53;;;2.30;;
71503;SDS011;59323;50.874;7.028;2023-08-06T02:03:38;6.63;;;2.60;;
71503;SDS011;59323;50.874;7.028;2023-08-06T02:06:03;6.43;;;2.53;;
71503;SDS011;59323;50.874;7.028;2023-08-06T02:08:28;6.27;;;2.27;;
71503;SDS011;59323;50.874;7.028;2023-08-06T02:10:54;6.40;;;2.67;;
71503;SDS011;59323;50.874;7.028;2023-08-06T02:13:19;8.10;;;2.80;;
71503;SDS011;59323;50.874;7.028;2023-08-06T02:15:45;8.25;;;2.58;;
71503;SDS011;59323;50.874;7.028;2023-08-06T02:18:15;5.57;;;2.60;;
71503;SDS011;59323;50.874;7.028;2023-08-06T02:20:41;7.70;;;2.70;;
71503;SDS011;59323;50.874;7.028;2023-08-06T02:23:07;8.00;;;2.42;;
71503;SDS011;59323;50.874;7.028;2023-08-06T02:25:32;7.17;;;2.93;;
71503;SDS011;59323;50.874;7.028;2023-08-06T02:27:58;6.85;;;2.10;;
71503;SDS011;59323;50.874;7.028;2023-08-06T02:30:25;6.10;;;2.40;;
71503;SDS011;59323;50.874;7.028;2023-08-06T02:32:54;5.38;;;2.38;;
71503;SDS011;59323;50.874;7.028;2023-08-06T02:35:22;6.18;;;2.03;;
71503;SDS011;59323;50.874;7.028;2023-08-06T02:37:48;5.90;;;2.30;;
71503;SDS011;59323;50.874;7.028;2023-08-06T02:40:13;7.63;;;2.57;;
71503;SDS011;59323;50.874;7.028;2023-08-06T02:42:39;7.97;;;2.83;;
71503;SDS011;59323;50.874;7.028;2023-08-06T02:45:09;5.72;;;2.40;;
71503;SDS011;59323;50.874;7.028;2023-08-06T02:47:43;7.50;;;2.72;;
71503;SDS011;59323;50.874;7.028;2023-08-06T02:50:08;5.13;;;2.17;;
71503;SDS011;59323;50.874;7.028;2023-08-06T02:52:34;7.05;;;2.15;;
71503;SDS011;59323;50.874;7.028;2023-08-06T02:54:59;8.93;;;2.47;;
71503;SDS011;59323;50.874;7.028;2023-08-06T02:57:25;6.25;;;2.55;;
71503;SDS011;59323;50.874;7.028;2023-08-06T02:59:53;6.00;;;2.20;;
71503;SDS011;59323;50.874;7.028;2023-08-06T03:02:18;6.43;;;2.17;;
71503;SDS011;59323;50.874;7.028;2023-08-06T03:04:43;6.53;;;2.40;;
71503;SDS011;59323;50.874;7.028;2023-08-06T03:07:09;10.50;;;2.60;;
71503;SDS011;59323;50.874;7.028;2023-08-06T03:09:34;5.77;;;2.50;;
71503;SDS011;59323;50.874;7.028;2023-08-06T03:12:00;7.63;;;2.37;;
71503;SDS011;59323;50.874;7.028;2023-08-06T03:14:25;8.53;;;2.70;;
71503;SDS011;59323;50.874;7.028;2023-08-06T03:16:50;5.97;;;2.70;;
71503;SDS011;59323;50.874;7.028;2023-08-06T03:19:15;8.20;;;3.00;;
71503;SDS011;59323;50.874;7.028;2023-08-06T03:21:41;5.97;;;2.50;;
71503;SDS011;59323;50.874;7.028;2023-08-06T03:24:06;6.07;;;2.50;;
71503;SDS011;59323;50.874;7.028;2023-08-06T03:26:31;8.07;;;2.50;;
71503;SDS011;59323;50.874;7.028;2023-08-06T03:28:57;6.80;;;2.40;;
71503;SDS011;59323;50.874;7.028;2023-08-06T03:31:22;6.20;;;2.80;;
71503;SDS011;59323;50.874;7.028;2023-08-06T03:33:47;6.47;;;2.50;;
71503;SDS011;59323;50.874;7.028;2023-08-06T03:36:13;8.37;;;2.53;;
71503;SDS011;59323;50.874;7.028;2023-08-06T03:38:38;6.73;;;2.40;;
71503;SDS011;59323;50.874;7.028;2023-08-06T03:41:03;6.18;;;2.40;;
71503;SDS011;59323;50.874;7.028;2023-08-06T03:43:32;6.23;;;2.20;;
71503;SDS011;59323;50.874;7.028;2023-08-06T03:45:57;5.30;;;2.15;;
71503;SDS011;59323;50.874;7.028;2023-08-06T03:48:22;7.00;;;2.80;;
71503;SDS011;59323;50.874;7.028;2023-08-06T03:50:48;6.57;;;2.50;;
71503;SDS011;59323;50.874;7.028;2023-08-06T03:53:13;8.73;;;2.53;;
71503;SDS011;59323;50.874;7.028;2023-08-06T03:55:38;6.93;;;3.13;;
71503;SDS011;59323;50.874;7.028;2023-08-06T03:58:04;5.40;;;2.40;;
71503;SDS011;59323;50.874;7.028;2023-08-06T04:00:29;5.63;;;2.37;;
71503;SDS011;59323;50.874;7.028;2023-08-06T04:02:54;7.15;;;2.35;;
71503;SDS011;59323;50.874;7.028;2023-08-06T04:05:20;5.90;;;2.20;;
71503;SDS011;59323;50.874;7.028;2023-08-06T04:07:45;5.73;;;1.80;;
71503;SDS011;59323;50.874;7.028;2023-08-06T04:10:10;9.13;;;2.57;;
71503;SDS011;59323;50.874;7.028;2023-08-06T04:12:36;7.03;;;2.00;;
71503;SDS011;59323;50.874;7.028;2023-08-06T04:15:03;6.53;;;2.55;;
71503;SDS011;59323;50.874;7.028;2023-08-06T04:17:29;6.10;;;2.55;;
71503;SDS011;59323;50.874;7.028;2023-08-06T04:19:54;8.10;;;2.70;;
71503;SDS011;59323;50.874;7.028;2023-08-06T04:22:20;6.53;;;2.53;;
71503;SDS011;59323;50.874;7.028;2023-08-06T04:24:46;7.30;;;2.50;;
71503;SDS011;59323;50.874;7.028;2023-08-06T04:27:12;5.85;;;2.40;;
71503;SDS011;59323;50.874;7.028;2023-08-06T04:29:39;6.18;;;2.60;;
71503;SDS011;59323;50.874;7.028;2023-08-06T04:32:04;7.17;;;2.43;;
71503;SDS011;59323;50.874;7.028;2023-08-06T04:34:31;6.15;;;2.40;;
71503;SDS011;59323;50.874;7.028;2023-08-06T04:36:56;6.80;;;2.20;;
71503;SDS011;59323;50.874;7.028;2023-08-06T04:39:21;5.93;;;2.20;;
71503;SDS011;59323;50.874;7.028;2023-08-06T04:41:47;6.03;;;2.33;;
71503;SDS011;59323;50.874;7.028;2023-08-06T04:44:12;5.60;;;2.67;;
71503;SDS011;59323;50.874;7.028;2023-08-06T04:46:37;6.37;;;2.30;;
71503;SDS011;59323;50.874;7.028;2023-08-06T04:49:03;6.33;;;2.73;;
71503;SDS011;59323;50.874;7.028;2023-08-06T04:51:28;5.00;;;2.33;;
71503;SDS011;59323;50.874;7.028;2023-08-06T04:53:53;5.30;;;2.17;;
71503;SDS011;59323;50.874;7.028;2023-08-06T04:56:19;6.10;;;2.50;;
71503;SDS011;59323;50.874;7.028;2023-08-06T04:58:44;8.77;;;2.47;;
71503;SDS011;59323;50.874;7.028;2023-08-06T05:01:09;5.70;;;2.13;;
71503;SDS011;59323;50.874;7.028;2023-08-06T05:03:35;8.43;;;2.40;;
71503;SDS011;59323;50.874;7.028;2023-08-06T05:06:00;7.80;;;2.22;;
71503;SDS011;59323;50.874;7.028;2023-08-06T05:08:25;6.80;;;2.47;;
71503;SDS011;59323;50.874;7.028;2023-08-06T05:10:51;8.70;;;2.60;;
71503;SDS011;59323;50.874;7.028;2023-08-06T05:13:16;8.53;;;2.30;;
71503;SDS011;59323;50.874;7.028;2023-08-06T05:15:41;6.83;;;2.40;;
71503;SDS011;59323;50.874;7.028;2023-08-06T05:18:07;6.07;;;2.22;;
71503;SDS011;59323;50.874;7.028;2023-08-06T05:20:37;6.47;;;2.10;;
71503;SDS011;59323;50.874;7.028;2023-08-06T05:23:03;5.47;;;1.90;;
71503;SDS011;59323;50.874;7.028;2023-08-06T05:25:29;6.38;;;2.10;;
71503;SDS011;59323;50.874;7.028;2023-08-06T05:27:55;7.20;;;2.20;;
71503;SDS011;59323;50.874;7.028;2023-08-06T05:30:20;5.22;;;2.17;;
71503;SDS011;59323;50.874;7.028;2023-08-06T05:32:45;6.77;;;2.50;;
71503;SDS011;59323;50.874;7.028;2023-08-06T05:35:11;6.33;;;2.23;;
71503;SDS011;59323;50.874;7.028;2023-08-06T05:37:36;6.33;;;2.40;;
71503;SDS011;59323;50.874;7.028;2023-08-06T05:40:01;5.17;;;2.20;;
71503;SDS011;59323;50.874;7.028;2023-08-06T05:42:28;5.82;;;2.00;;
71503;SDS011;59323;50.874;7.028;2023-08-06T05:44:54;5.78;;;2.17;;
71503;SDS011;59323;50.874;7.028;2023-08-06T05:47:19;5.90;;;2.20;;
71503;SDS011;59323;50.874;7.028;2023-08-06T05:49:45;6.90;;;2.00;;
71503;SDS011;59323;50.874;7.028;2023-08-06T05:52:10;12.50;;;2.20;;
71503;SDS011;59323;50.874;7.028;2023-08-06T05:54:36;6.00;;;1.83;;
71503;SDS011;59323;50.874;7.028;2023-08-06T05:57:01;8.10;;;2.20;;
71503;SDS011;59323;50.874;7.028;2023-08-06T05:59:27;6.33;;;2.10;;
71503;SDS011;59323;50.874;7.028;2023-08-06T06:01:52;5.77;;;2.27;;
71503;SDS011;59323;50.874;7.028;2023-08-06T06:04:17;5.80;;;1.50;;
71503;SDS011;59323;50.874;7.028;2023-08-06T06:06:43;5.13;;;1.50;;
71503;SDS011;59323;50.874;7.028;2023-08-06T06:09:09;6.90;;;1.58;;
71503;SDS011;59323;50.874;7.028;2023-08-06T06:11:35;4.83;;;2.00;;
71503;SDS011;59323;50.874;7.028;2023-08-06T06:14:00;6.10;;;2.00;;
71503;SDS011;59323;50.874;7.028;2023-08-06T06:16:26;3.77;;;1.37;;
71503;SDS011;59323;50.874;7.028;2023-08-06T06:18:51;4.80;;;1.50;;
71503;SDS011;59323;50.874;7.028;2023-08-06T06:21:16;6.57;;;1.50;;
71503;SDS011;59323;50.874;7.028;2023-08-06T06:23:42;3.70;;;1.40;;
71503;SDS011;59323;50.874;7.028;2023-08-06T06:26:07;2.70;;;1.20;;
71503;SDS011;59323;50.874;7.028;2023-08-06T06:28:33;3.47;;;1.13;;
71503;SDS011;59323;50.874;7.028;2023-08-06T06:31:01;3.35;;;1.40;;
71503;SDS011;59323;50.874;7.028;2023-08-06T06:33:27;4.00;;;1.60;;
71503;SDS011;59323;50.874;7.028;2023-08-06T06:35:52;5.63;;;1.45;;
71503;SDS011;59323;50.874;7.028;2023-08-06T06:38:18;5.97;;;1.50;;
71503;SDS011;59323;50.874;7.028;2023-08-06T06:40:43;4.37;;;1.70;;
71503;SDS011;59323;50.874;7.028;2023-08-06T06:43:08;3.47;;;1.33;;
71503;SDS011;59323;50.874;7.028;2023-08-06T06:45:34;2.63;;;1.30;;
71503;SDS011;59323;50.874;7.028;2023-08-06T06:47:59;3.73;;;1.27;;
71503;SDS011;59323;50.874;7.028;2023-08-06T06:50:24;2.83;;;1.07;;
71503;SDS011;59323;50.874;7.028;2023-08-06T06:52:51;2.75;;;1.20;;
71503;SDS011;59323;50.874;7.028;2023-08-06T06:55:16;3.07;;;1.20;;
71503;SDS011;59323;50.874;7.028;2023-08-06T06:57:42;3.50;;;1.17;;
71503;SDS011;59323;50.874;7.028;2023-08-06T07:00:09;3.50;;;1.33;;
71503;SDS011;59323;50.874;7.028;2023-08-06T07:02:34;3.17;;;1.10;;
71503;SDS011;59323;50.874;7.028;2023-08-06T07:05:00;2.23;;;1.13;;
71503;SDS011;59323;50.874;7.028;2023-08-06T07:07:25;3.20;;;1.10;;
71503;SDS011;59323;50.874;7.028;2023-08-06T07:09:50;2.47;;;1.00;;
71503;SDS011;59323;50.874;7.028;2023-08-06T07:12:16;3.00;;;1.10;;
71503;SDS011;59323;50.874;7.028;2023-08-06T07:14:41;4.43;;;1.43;;
71503;SDS011;59323;50.874;7.028;2023-08-06T07:17:06;3.80;;;1.40;;
71503;SDS011;59323;50.874;7.028;2023-08-06T07:19:32;3.47;;;1.50;;
71503;SDS011;59323;50.874;7.028;2023-08-06T07:21:57;5.03;;;1.33;;
71503;SDS011;59323;50.874;7.028;2023-08-06T07:24:22;5.53;;;1.47;;
71503;SDS011;59323;50.874;7.028;2023-08-06T07:26:48;3.47;;;1.53;;
71503;SDS011;59323;50.874;7.028;2023-08-06T07:29:13;3.60;;;1.40;;
71503;SDS011;59323;50.874;7.028;2023-08-06T07:31:39;3.80;;;1.60;;
71503;SDS011;59323;50.874;7.028;2023-08-06T07:34:04;4.63;;;1.57;;
71503;SDS011;59323;50.874;7.028;2023-08-06T07:36:30;3.60;;;1.70;;
71503;SDS011;59323;50.874;7.028;2023-08-06T07:38:55;3.65;;;1.40;;
71503;SDS011;59323;50.874;7.028;2023-08-06T07:41:24;6.18;;;1.83;;
71503;SDS011;59323;50.874;7.028;2023-08-06T07:43:50;5.47;;;1.57;;
71503;SDS011;59323;50.874;7.028;2023-08-06T07:46:15;4.13;;;1.58;;
71503;SDS011;59323;50.874;7.028;2023-08-06T07:48:41;3.33;;;1.40;;
71503;SDS011;59323;50.874;7.028;2023-08-06T07:51:06;4.73;;;1.77;;
71503;SDS011;59323;50.874;7.028;2023-08-06T07:53:31;4.23;;;1.60;;
71503;SDS011;59323;50.874;7.028;2023-08-06T07:55:57;3.47;;;1.65;;
71503;SDS011;59323;50.874;7.028;2023-08-06T07:58:23;4.68;;;1.58;;
71503;SDS011;59323;50.874;7.028;2023-08-06T08:00:50;4.13;;;1.60;;
71503;SDS011;59323;50.874;7.028;2023-08-06T08:03:16;4.60;;;1.88;;
71503;SDS011;59323;50.874;7.028;2023-08-06T08:05:41;4.27;;;1.70;;
71503;SDS011;59323;50.874;7.028;2023-08-06T08:08:08;5.05;;;1.90;;
71503;SDS011;59323;50.874;7.028;2023-08-06T08:10:34;5.10;;;1.77;;
71503;SDS011;59323;50.874;7.028;2023-08-06T08:13:00;4.05;;;2.10;;
71503;SDS011;59323;50.874;7.028;2023-08-06T08:15:28;5.47;;;1.85;;
71503;SDS011;59323;50.874;7.028;2023-08-06T08:17:54;6.57;;;1.90;;
71503;SDS011;59323;50.874;7.028;2023-08-06T08:20:20;5.45;;;2.13;;
71503;SDS011;59323;50.874;7.028;2023-08-06T08:22:45;4.47;;;1.97;;
71503;SDS011;59323;50.874;7.028;2023-08-06T08:25:10;6.30;;;2.13;;
71503;SDS011;59323;50.874;7.028;2023-08-06T08:27:36;6.00;;;2.37;;
71503;SDS011;59323;50.874;7.028;2023-08-06T08:30:01;5.30;;;1.77;;
71503;SDS011;59323;50.874;7.028;2023-08-06T08:32:27;5.90;;;2.37;;
71503;SDS011;59323;50.874;7.028;2023-08-06T08:34:52;7.03;;;2.17;;
71503;SDS011;59323;50.874;7.028;2023-08-06T08:37:18;6.57;;;2.27;;
71503;SDS011;59323;50.874;7.028;2023-08-06T08:39:44;5.53;;;2.55;;
71503;SDS011;59323;50.874;7.028;2023-08-06T08:42:09;5.70;;;2.70;;
71503;SDS011;59323;50.874;7.028;2023-08-06T08:44:35;8.25;;;2.53;;
71503;SDS011;59323;50.874;7.028;2023-08-06T08:47:05;6.75;;;2.53;;
71503;SDS011;59323;50.874;7.028;2023-08-06T08:49:31;5.85;;;2.40;;
71503;SDS011;59323;50.874;7.028;2023-08-06T08:51:57;7.73;;;2.43;;
71503;SDS011;59323;50.874;7.028;2023-08-06T08:54:26;4.45;;;2.03;;
71503;SDS011;59323;50.874;7.028;2023-08-06T08:56:53;6.05;;;2.58;;
71503;SDS011;59323;50.874;7.028;2023-08-06T08:59:20;4.50;;;2.53;;
71503;SDS011;59323;50.874;7.028;2023-08-06T09:01:45;4.40;;;2.30;;
71503;SDS011;59323;50.874;7.028;2023-08-06T09:04:16;6.75;;;2.47;;
71503;SDS011;59323;50.874;7.028;2023-08-06T09:06:42;5.78;;;2.58;;
71503;SDS011;59323;50.874;7.028;2023-08-06T09:09:20;9.25;;;2.80;;
71503;SDS011;59323;50.874;7.028;2023-08-06T09:11:50;5.13;;;2.20;;
71503;SDS011;59323;50.874;7.028;2023-08-06T09:14:16;7.00;;;1.85;;
71503;SDS011;59323;50.874;7.028;2023-08-06T09:16:42;4.53;;;2.10;;
71503;SDS011;59323;50.874;7.028;2023-08-06T09:19:09;5.78;;;2.00;;
71503;SDS011;59323;50.874;7.028;2023-08-06T09:21:38;4.65;;;1.77;;
71503;SDS011;59323;50.874;7.028;2023-08-06T09:24:08;3.13;;;1.47;;
71503;SDS011;59323;50.874;7.028;2023-08-06T09:26:43;2.70;;;1.40;;
71503;SDS011;59323;50.874;7.028;2023-08-06T09:29:09;4.43;;;1.88;;
71503;SDS011;59323;50.874;7.028;2023-08-06T09:31:43;4.80;;;1.60;;
71503;SDS011;59323;50.874;7.028;2023-08-06T09:36:47;3.57;;;1.30;;
71503;SDS011;59323;50.874;7.028;2023-08-06T09:39:16;3.85;;;1.05;;
71503;SDS011;59323;50.874;7.028;2023-08-06T09:41:43;2.38;;;1.27;;
71503;SDS011;59323;50.874;7.028;2023-08-06T09:44:15;2.30;;;1.08;;
71503;SDS011;59323;50.874;7.028;2023-08-06T09:46:48;2.50;;;1.20;;
71503;SDS011;59323;50.874;7.028;2023-08-06T09:49:14;2.63;;;1.20;;
71503;SDS011;59323;50.874;7.028;2023-08-06T09:51:39;2.55;;;1.42;;
71503;SDS011;59323;50.874;7.028;2023-08-06T09:54:06;5.30;;;1.70;;
71503;SDS011;59323;50.874;7.028;2023-08-06T09:56:33;5.63;;;1.60;;
71503;SDS011;59323;50.874;7.028;2023-08-06T09:59:03;3.60;;;1.48;;
71503;SDS011;59323;50.874;7.028;2023-08-06T10:01:32;4.35;;;2.10;;
71503;SDS011;59323;50.874;7.028;2023-08-06T10:03:59;6.03;;;2.72;;
71503;SDS011;59323;50.874;7.028;2023-08-06T10:06:25;5.55;;;2.40;;
71503;SDS011;59323;50.874;7.028;2023-08-06T10:08:53;4.80;;;2.37;;
71503;SDS011;59323;50.874;7.028;2023-08-06T10:11:18;7.20;;;3.00;;
71503;SDS011;59323;50.874;7.028;2023-08-06T10:13:48;5.97;;;2.83;;
71503;SDS011;59323;50.874;7.028;2023-08-06T10:16:17;5.55;;;2.50;;
71503;SDS011;59323;50.874;7.028;2023-08-06T10:18:43;6.22;;;2.78;;
71503;SDS011;59323;50.874;7.028;2023-08-06T10:21:09;5.97;;;2.58;;
71503;SDS011;59323;50.874;7.028;2023-08-06T10:23:35;5.57;;;1.90;;
71503;SDS011;59323;50.874;7.028;2023-08-06T10:26:05;2.33;;;1.00;;
71503;SDS011;59323;50.874;7.028;2023-08-06T10:28:35;2.30;;;0.77;;
71503;SDS011;59323;50.874;7.028;2023-08-06T10:31:02;1.73;;;0.50;;
71503;SDS011;59323;50.874;7.028;2023-08-06T10:33:45;1.77;;;0.40;;
71503;SDS011;59323;50.874;7.028;2023-08-06T10:36:12;2.50;;;0.90;;
71503;SDS011;59323;50.874;7.028;2023-08-06T10:38:47;2.47;;;0.90;;
71503;SDS011;59323;50.874;7.028;2023-08-06T10:41:15;2.37;;;0.90;;
71503;SDS011;59323;50.874;7.028;2023-08-06T10:44:07;2.40;;;0.90;;
71503;SDS011;59323;50.874;7.028;2023-08-06T10:46:33;3.90;;;0.82;;
71503;SDS011;59323;50.874;7.028;2023-08-06T10:48:59;3.67;;;1.20;;
71503;SDS011;59323;50.874;7.028;2023-08-06T10:51:24;3.65;;;1.48;;
71503;SDS011;59323;50.874;7.028;2023-08-06T10:53:50;3.33;;;1.00;;
71503;SDS011;59323;50.874;7.028;2023-08-06T10:56:16;4.83;;;1.20;;
71503;SDS011;59323;50.874;7.028;2023-08-06T10:58:42;4.00;;;1.30;;
71503;SDS011;59323;50.874;7.028;2023-08-06T11:01:10;4.35;;;1.33;;
71503;SDS011;59323;50.874;7.028;2023-08-06T11:03:36;3.17;;;1.23;;
71503;SDS011;59323;50.874;7.028;2023-08-06T11:06:02;4.47;;;1.10;;
71503;SDS011;59323;50.874;7.028;2023-08-06T11:08:28;3.78;;;1.45;;
71503;SDS011;59323;50.874;7.028;2023-08-06T11:11:08;4.18;;;1.38;;
71503;SDS011;59323;50.874;7.028;2023-08-06T11:13:47;5.25;;;1.20;;
71503;SDS011;59323;50.874;7.028;2023-08-06T11:16:17;4.77;;;1.37;;
71503;SDS011;59323;50.874;7.028;2023-08-06T11:18:44;3.38;;;1.27;;
71503;SDS011;59323;50.874;7.028;2023-08-06T11:21:10;4.32;;;1.48;;
71503;SDS011;59323;50.874;7.028;2023-08-06T11:23:37;3.17;;;1.40;;
71503;SDS011;59323;50.874;7.028;2023-08-06T11:26:02;4.05;;;1.20;;
71503;SDS011;59323;50.874;7.028;2023-08-06T11:28:28;6.80;;;1.40;;
71503;SDS011;59323;50.874;7.028;2023-08-06T11:30:53;4.88;;;1.13;;
71503;SDS011;59323;50.874;7.028;2023-08-06T11:33:26;6.73;;;1.87;;
71503;SDS011;59323;50.874;7.028;2023-08-06T11:35:58;4.25;;;1.13;;
71503;SDS011;59323;50.874;7.028;2023-08-06T11:38:30;4.50;;;1.40;;
71503;SDS011;59323;50.874;7.028;2023-08-06T11:40:57;7.85;;;1.15;;
71503;SDS011;59323;50.874;7.028;2023-08-06T11:43:22;5.97;;;1.83;;
71503;SDS011;59323;50.874;7.028;2023-08-06T11:45:48;4.40;;;1.07;;
71503;SDS011;59323;50.874;7.028;2023-08-06T11:48:15;4.53;;;1.30;;
71503;SDS011;59323;50.874;7.028;2023-08-06T11:50:41;4.93;;;1.40;;
71503;SDS011;59323;50.874;7.028;2023-08-06T11:53:07;5.87;;;1.33;;
71503;SDS011;59323;50.874;7.028;2023-08-06T11:55:32;5.80;;;0.93;;
71503;SDS011;59323;50.874;7.028;2023-08-06T11:57:58;4.80;;;1.00;;
71503;SDS011;59323;50.874;7.028;2023-08-06T12:00:28;4.80;;;1.00;;
71503;SDS011;59323;50.874;7.028;2023-08-06T12:02:53;3.60;;;1.00;;
71503;SDS011;59323;50.874;7.028;2023-08-06T12:05:20;2.60;;;0.88;;
71503;SDS011;59323;50.874;7.028;2023-08-06T12:07:49;3.13;;;0.60;;
71503;SDS011;59323;50.874;7.028;2023-08-06T12:10:15;2.25;;;1.00;;
71503;SDS011;59323;50.874;7.028;2023-08-06T12:12:41;7.82;;;0.82;;
71503;SDS011;59323;50.874;7.028;2023-08-06T12:15:08;2.25;;;0.90;;
71503;SDS011;59323;50.874;7.028;2023-08-06T12:17:35;3.67;;;0.80;;
71503;SDS011;59323;50.874;7.028;2023-08-06T12:20:01;2.70;;;0.85;;
71503;SDS011;59323;50.874;7.028;2023-08-06T12:22:29;4.43;;;1.10;;
71503;SDS011;59323;50.874;7.028;2023-08-06T12:24:57;4.93;;;1.13;;
71503;SDS011;59323;50.874;7.028;2023-08-06T12:27:22;4.23;;;1.10;;
71503;SDS011;59323;50.874;7.028;2023-08-06T12:29:48;3.37;;;1.10;;
71503;SDS011;59323;50.874;7.028;2023-08-06T12:32:13;3.88;;;1.33;;
71503;SDS011;59323;50.874;7.028;2023-08-06T12:34:40;4.47;;;1.30;;
71503;SDS011;59323;50.874;7.028;2023-08-06T12:37:06;4.63;;;0.90;;
71503;SDS011;59323;50.874;7.028;2023-08-06T12:39:32;4.45;;;1.15;;
71503;SDS011;59323;50.874;7.028;2023-08-06T12:42:01;3.90;;;1.23;;
71503;SDS011;59323;50.874;7.028;2023-08-06T12:44:28;4.43;;;1.37;;
71503;SDS011;59323;50.874;7.028;2023-08-06T12:46:53;6.35;;;1.05;;
71503;SDS011;59323;50.874;7.028;2023-08-06T12:49:19;3.03;;;0.77;;
71503;SDS011;59323;50.874;7.028;2023-08-06T12:51:51;5.57;;;1.10;;
71503;SDS011;59323;50.874;7.028;2023-08-06T12:54:17;2.00;;;0.90;;
71503;SDS011;59323;50.874;7.028;2023-08-06T12:56:49;7.28;;;1.20;;
71503;SDS011;59323;50.874;7.028;2023-08-06T12:59:15;4.10;;;1.48;;
71503;SDS011;59323;50.874;7.028;2023-08-06T13:01:42;5.63;;;1.10;;
71503;SDS011;59323;50.874;7.028;2023-08-06T13:04:08;4.75;;;1.35;;
71503;SDS011;59323;50.874;7.028;2023-08-06T13:06:34;4.95;;;1.52;;
71503;SDS011;59323;50.874;7.028;2023-08-06T13:09:04;6.38;;;1.25;;
71503;SDS011;59323;50.874;7.028;2023-08-06T13:11:40;4.13;;;1.23;;
71503;SDS011;59323;50.874;7.028;2023-08-06T13:14:09;5.93;;;1.40;;
71503;SDS011;59323;50.874;7.028;2023-08-06T13:16:36;4.50;;;1.52;;
71503;SDS011;59323;50.874;7.028;2023-08-06T13:19:03;5.13;;;1.50;;
71503;SDS011;59323;50.874;7.028;2023-08-06T13:23:58;5.10;;;1.20;;
71503;SDS011;59323;50.874;7.028;2023-08-06T13:26:23;7.28;;;1.65;;
71503;SDS011;59323;50.874;7.028;2023-08-06T13:28:49;6.57;;;2.07;;
71503;SDS011;59323;50.874;7.028;2023-08-06T13:31:14;5.40;;;1.47;;
71503;SDS011;59323;50.874;7.028;2023-08-06T13:33:39;4.87;;;1.40;;
71503;SDS011;59323;50.874;7.028;2023-08-06T13:36:05;6.57;;;1.45;;
71503;SDS011;59323;50.874;7.028;2023-08-06T13:38:30;6.70;;;1.87;;
71503;SDS011;59323;50.874;7.028;2023-08-06T13:40:56;6.70;;;1.50;;
71503;SDS011;59323;50.874;7.028;2023-08-06T13:43:21;8.43;;;2.00;;
71503;SDS011;59323;50.874;7.028;2023-08-06T13:45:46;5.20;;;1.50;;
71503;SDS011;59323;50.874;7.028;2023-08-06T13:48:12;4.75;;;1.92;;
71503;SDS011;59323;50.874;7.028;2023-08-06T13:50:37;5.53;;;1.77;;
71503;SDS011;59323;50.874;7.028;2023-08-06T13:53:03;4.97;;;2.10;;
71503;SDS011;59323;50.874;7.028;2023-08-06T13:55:28;6.78;;;2.20;;
71503;SDS011;59323;50.874;7.028;2023-08-06T13:57:54;7.70;;;2.03;;
71503;SDS011;59323;50.874;7.028;2023-08-06T14:00:20;5.43;;;2.35;;
71503;SDS011;59323;50.874;7.028;2023-08-06T14:02:45;9.77;;;2.90;;
71503;SDS011;59323;50.874;7.028;2023-08-06T14:05:14;6.13;;;2.00;;
71503;SDS011;59323;50.874;7.028;2023-08-06T14:07:39;5.10;;;2.05;;
71503;SDS011;59323;50.874;7.028;2023-08-06T14:10:05;5.43;;;2.20;;
71503;SDS011;59323;50.874;7.028;2023-08-06T14:12:31;4.88;;;1.52;;
71503;SDS011;59323;50.874;7.028;2023-08-06T14:14:56;5.32;;;1.80;;
71503;SDS011;59323;50.874;7.028;2023-08-06T14:17:22;6.23;;;2.10;;
71503;SDS011;59323;50.874;7.028;2023-08-06T14:19:47;5.33;;;1.70;;
71503;SDS011;59323;50.874;7.028;2023-08-06T14:22:12;3.90;;;1.30;;
71503;SDS011;59323;50.874;7.028;2023-08-06T14:24:42;5.90;;;1.03;;
71503;SDS011;59323;50.874;7.028;2023-08-06T14:27:07;3.45;;;1.00;;
71503;SDS011;59323;50.874;7.028;2023-08-06T14:29:33;3.67;;;1.17;;
71503;SDS011;59323;50.874;7.028;2023-08-06T14:31:58;5.27;;;1.23;;
71503;SDS011;59323;50.874;7.028;2023-08-06T14:34:23;5.17;;;1.00;;
71503;SDS011;59323;50.874;7.028;2023-08-06T14:36:49;4.55;;;1.10;;
71503;SDS011;59323;50.874;7.028;2023-08-06T14:39:14;5.20;;;1.17;;
71503;SDS011;59323;50.874;7.028;2023-08-06T14:41:39;6.67;;;1.67;;
71503;SDS011;59323;50.874;7.028;2023-08-06T14:44:05;5.43;;;1.30;;
71503;SDS011;59323;50.874;7.028;2023-08-06T14:46:32;6.57;;;1.20;;
71503;SDS011;59323;50.874;7.028;2023-08-06T14:48:57;6.07;;;1.07;;
71503;SDS011;59323;50.874;7.028;2023-08-06T14:51:23;2.97;;;0.80;;
71503;SDS011;59323;50.874;7.028;2023-08-06T14:53:48;3.87;;;0.90;;
71503;SDS011;59323;50.874;7.028;2023-08-06T14:56:13;3.67;;;1.10;;
71503;SDS011;59323;50.874;7.028;2023-08-06T14:58:39;7.17;;;1.70;;